Time;durP1;ratioP1;P1;durP2;ratioP2;P2;SDS_P1;SDS_P2;PMS_P1;PMS_P2;Temp;Humidity;BMP_temperature;BMP_pressure;BME280_temperature;BME280_humidity;BME280_pressure;Samples;Min_cycle;Max_cycle;Signal;HPM_P1;HPM_P2
2022/10/03 00:02:18;;;;;;;14.73;9.03;;;16.00;89.50;;;-142.21;100.00;112049.66;5111855;28;20436;-71
2022/10/03 00:05:06;;;;;;;9.73;7.70;;;16.00;89.30;;;-142.21;100.00;112049.66;5111627;28;20432;-71
2022/10/03 00:08:04;;;;;;;19.03;7.83;;;16.00;89.10;;;-142.21;100.00;112049.66;5111730;28;20437;-71
2022/10/03 00:11:08;;;;;;;13.60;7.73;;;16.00;88.90;;;-142.21;100.00;112049.66;5111420;28;20442;-71
2022/10/03 00:13:50;;;;;;;12.30;8.03;;;16.00;88.90;;;-142.21;100.00;112049.66;5111347;28;20457;-71
2022/10/03 00:16:28;;;;;;;17.97;7.13;;;15.90;89.30;;;-142.21;100.00;112049.66;5092613;28;20438;-73
2022/10/03 00:19:08;;;;;;;11.27;7.73;;;15.90;89.70;;;-142.21;100.00;112049.66;5111470;28;20448;-72
2022/10/03 00:21:56;;;;;;;22.97;6.97;;;15.80;89.50;;;-142.21;100.00;112049.66;5111558;28;20509;-71
2022/10/03 00:24:41;;;;;;;23.93;6.63;;;15.90;89.40;;;-142.21;100.00;112049.66;5110959;28;20421;-72
2022/10/03 00:27:18;;;;;;;9.80;6.23;;;15.80;89.20;;;-142.21;100.00;112049.66;5110685;28;20909;-71
2022/10/03 00:30:11;;;;;;;8.43;6.53;;;15.80;89.40;;;-142.21;100.00;112049.66;5061666;28;20477;-72
2022/10/03 00:33:17;;;;;;;9.87;7.07;;;15.80;89.70;;;-142.21;100.00;112049.66;5111185;28;20905;-71
2022/10/03 00:36:01;;;;;;;11.37;6.77;;;15.90;89.50;;;-142.21;100.00;112049.66;5111078;28;20949;-71
2022/10/03 00:39:22;;;;;;;9.27;7.17;;;15.90;89.30;;;-142.21;100.00;112049.66;5096803;28;20429;-72
2022/10/03 00:42:43;;;;;;;7.73;6.53;;;15.90;89.40;;;-142.21;100.00;112049.66;5114913;28;20445;-72
2022/10/03 00:45:49;;;;;;;13.50;6.50;;;15.90;89.30;;;-142.21;100.00;112049.66;5114483;28;20500;-71
2022/10/03 00:49:03;;;;;;;8.77;6.57;;;16.00;88.90;;;-142.21;100.00;112049.66;5114350;28;20429;-72
2022/10/03 00:51:50;;;;;;;7.23;5.90;;;15.90;88.80;;;-142.21;100.00;112049.66;5093630;28;20530;-71
2022/10/03 00:54:51;;;;;;;10.47;6.90;;;15.90;88.80;;;-142.21;100.00;112049.66;5093761;28;20469;-71
2022/10/03 00:57:58;;;;;;;7.10;6.33;;;15.90;88.80;;;-142.21;100.00;112049.66;5041744;28;20438;-71
2022/10/03 01:00:29;;;;;;;15.10;5.97;;;15.90;89.10;;;-142.21;100.00;112049.66;5077319;28;20457;-72
2022/10/03 01:03:37;;;;;;;7.87;5.93;;;15.90;88.80;;;-142.21;100.00;112049.66;5094270;28;20427;-71
2022/10/03 01:06:27;;;;;;;8.97;6.53;;;16.00;88.90;;;-142.21;100.00;112049.66;5094245;28;20764;-71
2022/10/03 01:09:36;;;;;;;10.03;5.57;;;15.90;88.60;;;-142.21;100.00;112049.66;5094100;28;20468;-72
2022/10/03 01:12:43;;;;;;;7.90;5.87;;;15.90;88.50;;;-142.21;100.00;112049.66;5094140;28;20477;-72
2022/10/03 01:15:29;;;;;;;8.63;6.40;;;15.90;88.90;;;-142.21;100.00;112049.66;5079581;28;20429;-72
2022/10/03 01:18:18;;;;;;;7.10;5.50;;;15.90;88.80;;;-142.21;100.00;112049.66;5101741;28;20509;-72
2022/10/03 01:21:01;;;;;;;8.30;5.83;;;15.90;88.50;;;-142.21;100.00;112049.66;5114425;28;20917;-72
2022/10/03 01:24:21;;;;;;;6.70;6.00;;;15.90;88.60;;;-142.21;100.00;112049.66;5113283;28;20426;-71
2022/10/03 01:27:00;;;;;;;7.00;5.40;;;15.90;88.70;;;-142.21;100.00;112049.66;5113814;28;20441;-73
2022/10/03 01:32:47;;;;;;;10.27;5.73;;;16.00;88.30;;;-142.21;100.00;112049.66;5113644;28;20422;-71
2022/10/03 01:35:36;;;;;;;7.27;5.27;;;16.00;88.00;;;-142.21;100.00;112049.66;5113391;28;20906;-71
2022/10/03 01:38:19;;;;;;;8.60;5.63;;;15.90;88.10;;;-142.21;100.00;112049.66;5113492;28;20433;-71
2022/10/03 01:41:01;;;;;;;6.23;5.03;;;15.90;88.00;;;-142.21;100.00;112049.66;5113466;28;20463;-71
2022/10/03 01:43:42;;;;;;;8.17;5.40;;;15.90;88.10;;;-142.21;100.00;112049.66;5113340;28;20478;-71
2022/10/03 01:46:21;;;;;;;5.77;5.10;;;15.80;88.20;;;-142.21;100.00;112049.66;5113967;28;20421;-71
2022/10/03 01:49:01;;;;;;;10.37;6.10;;;15.90;88.20;;;-142.21;100.00;112049.66;5113287;28;20516;-71
2022/10/03 01:51:45;;;;;;;6.77;5.40;;;15.90;88.30;;;-142.21;100.00;112049.66;5113277;28;20425;-71
2022/10/03 01:54:23;;;;;;;8.10;5.60;;;15.80;88.40;;;-142.21;100.00;112049.66;5112523;28;20457;-70
2022/10/03 01:57:01;;;;;;;7.10;5.03;;;15.70;88.10;;;-142.21;100.00;112049.66;5113562;28;20429;-71
2022/10/03 01:59:41;;;;;;;7.87;6.20;;;15.70;88.60;;;-142.21;100.00;112049.66;5112991;28;20477;-72
2022/10/03 02:02:35;;;;;;;7.23;5.63;;;15.60;89.30;;;-142.21;100.00;112049.66;5113581;28;20501;-71
2022/10/03 02:05:13;;;;;;;7.70;5.87;;;15.60;88.90;;;-142.21;100.00;112049.66;5113191;28;20422;-71
2022/10/03 02:07:50;;;;;;;8.90;5.93;;;15.60;88.50;;;-142.21;100.00;112049.66;5113155;28;20414;-72
2022/10/03 02:10:34;;;;;;;8.30;5.93;;;15.70;88.30;;;-142.21;100.00;112049.66;5094718;28;20420;-72
2022/10/03 02:13:14;;;;;;;9.73;6.60;;;15.70;87.70;;;-142.21;100.00;112049.66;5112820;28;20421;-71
2022/10/03 02:15:55;;;;;;;7.87;6.10;;;15.70;88.30;;;-142.21;100.00;112049.66;5113399;28;20422;-71
2022/10/03 02:18:39;;;;;;;7.83;5.83;;;15.70;87.30;;;-142.21;100.00;112049.66;5112546;28;20429;-72
2022/10/03 02:21:14;;;;;;;6.37;5.40;;;15.70;87.10;;;-142.21;100.00;112049.66;5113001;28;20706;-72
2022/10/03 02:23:45;;;;;;;6.70;5.37;;;15.70;86.90;;;-142.21;100.00;112049.66;5112919;28;20529;-71
2022/10/03 02:26:56;;;;;;;7.20;5.23;;;15.70;86.70;;;-142.21;100.00;112049.66;5113061;28;20430;-71
2022/10/03 02:30:18;;;;;;;7.77;5.57;;;15.70;86.10;;;-142.21;100.00;112049.66;5112174;28;20476;-71
2022/10/03 02:33:47;;;;;;;7.20;5.23;;;15.60;85.60;;;-142.21;100.00;112049.66;5010210;28;20490;-72
2022/10/03 02:37:35;;;;;;;8.20;6.47;;;15.60;85.90;;;-142.21;100.00;112049.66;5112220;28;20443;-72
2022/10/03 02:40:40;;;;;;;10.37;5.97;;;15.50;86.40;;;-142.21;100.00;112049.66;5071987;28;20530;-71
2022/10/03 02:44:23;;;;;;;7.83;6.33;;;15.40;86.80;;;-142.21;100.00;112049.66;5112630;28;20427;-71
2022/10/03 02:47:56;;;;;;;7.90;6.13;;;15.40;87.20;;;-142.21;100.00;112049.66;5009827;28;20427;-71
2022/10/03 02:51:13;;;;;;;6.70;5.70;;;15.40;86.80;;;-142.21;100.00;112049.66;5002485;28;20446;-71
2022/10/03 02:54:29;;;;;;;7.27;5.87;;;15.40;86.70;;;-142.21;100.00;112049.66;5092341;28;20945;-72
2022/10/03 02:57:56;;;;;;;4.83;4.33;;;15.40;86.80;;;-142.21;100.00;112049.66;5051129;28;20898;-72
2022/10/03 03:00:34;;;;;;;4.90;4.27;;;15.30;86.20;;;-142.21;100.00;112049.66;5072084;28;20450;-71
2022/10/03 03:03:39;;;;;;;4.53;4.00;;;15.20;86.60;;;-142.21;100.00;112049.66;5074625;28;20764;-71
2022/10/03 03:07:10;;;;;;;3.97;3.57;;;15.30;86.70;;;-142.21;100.00;112049.66;5092179;28;20418;-72
2022/10/03 03:10:30;;;;;;;4.63;4.07;;;15.30;86.40;;;-142.21;100.00;112049.66;5083976;28;20820;-71
2022/10/03 03:14:08;;;;;;;5.20;4.50;;;15.40;86.40;;;-142.21;100.00;112049.66;5047670;28;20445;-70
2022/10/03 03:16:58;;;;;;;7.23;5.00;;;15.40;86.20;;;-142.21;100.00;112049.66;5101144;28;20461;-72
2022/10/03 03:19:56;;;;;;;5.53;4.40;;;15.40;86.30;;;-142.21;100.00;112049.66;5091105;28;20429;-71
2022/10/03 03:22:43;;;;;;;5.47;4.63;;;15.40;86.40;;;-142.21;100.00;112049.66;5038998;28;20473;-71
2022/10/03 03:25:48;;;;;;;5.70;5.00;;;15.40;86.60;;;-142.21;100.00;112049.66;5091741;28;20510;-72
2022/10/03 03:28:37;;;;;;;5.53;4.93;;;15.40;86.70;;;-142.21;100.00;112049.66;5091581;28;20430;-70
2022/10/03 03:31:12;;;;;;;6.70;4.93;;;15.40;86.80;;;-142.21;100.00;112049.66;5091239;28;20486;-71
2022/10/03 03:34:06;;;;;;;5.43;4.80;;;15.40;86.60;;;-142.21;100.00;112049.66;5073340;28;20418;-71
2022/10/03 03:36:43;;;;;;;5.43;4.83;;;15.40;86.40;;;-142.21;100.00;112049.66;5090808;28;20748;-71
2022/10/03 03:39:33;;;;;;;5.10;4.60;;;15.50;86.40;;;-142.21;100.00;112049.66;5091593;28;20426;-71
2022/10/03 03:42:34;;;;;;;5.27;4.73;;;15.50;86.20;;;-142.21;100.00;112049.66;5091742;28;20415;-71
2022/10/03 03:45:33;;;;;;;6.77;5.30;;;15.50;86.00;;;-142.21;100.00;112049.66;5091639;28;20429;-71
2022/10/03 03:48:37;;;;;;;6.83;5.30;;;15.50;85.90;;;-142.21;100.00;112049.66;5073614;28;20489;-71
2022/10/03 03:51:23;;;;;;;5.60;5.00;;;15.50;85.90;;;-142.21;100.00;112049.66;5091106;28;21000;-71
2022/10/03 03:54:33;;;;;;;4.97;4.47;;;15.50;85.80;;;-142.21;100.00;112049.66;5091462;28;20466;-71
2022/10/03 03:57:33;;;;;;;5.43;4.93;;;15.50;85.40;;;-142.21;100.00;112049.66;5091272;28;20423;-72
2022/10/03 04:00:29;;;;;;;5.77;4.80;;;15.40;85.30;;;-142.21;100.00;112049.66;5091127;28;20450;-72
2022/10/03 04:03:21;;;;;;;5.63;4.90;;;15.40;85.40;;;-142.21;100.00;112049.66;5091255;28;20509;-71
2022/10/03 04:06:11;;;;;;;6.90;4.23;;;15.40;85.40;;;-142.21;100.00;112049.66;5065653;28;20906;-71
2022/10/03 04:09:08;;;;;;;4.97;4.40;;;15.40;85.50;;;-142.21;100.00;112049.66;5111269;28;20432;-70
2022/10/03 04:11:56;;;;;;;5.70;4.77;;;15.50;85.60;;;-142.21;100.00;112049.66;5111116;28;20425;-70
2022/10/03 04:15:06;;;;;;;8.47;5.03;;;15.50;85.70;;;-142.21;100.00;112049.66;5115109;28;20518;-70
2022/10/03 04:21:11;;;;;;;6.93;4.80;;;15.50;85.90;;;-142.21;100.00;112049.66;5114789;28;21019;-72
2022/10/03 04:24:01;;;;;;;7.27;4.70;;;15.50;85.90;;;-142.21;100.00;112049.66;5114694;28;20525;-71
2022/10/03 04:26:51;;;;;;;7.30;4.70;;;15.50;86.70;;;-142.21;100.00;112049.66;5115065;28;20430;-71
2022/10/03 04:29:44;;;;;;;7.57;5.20;;;15.50;85.90;;;-142.21;100.00;112049.66;5114932;28;21022;-72
2022/10/03 04:32:44;;;;;;;6.40;4.73;;;15.50;85.80;;;-142.21;100.00;112049.66;5113095;28;20449;-72
2022/10/03 04:36:08;;;;;;;5.43;4.83;;;15.50;86.60;;;-142.21;100.00;112049.66;5115287;28;21011;-72
2022/10/03 04:38:54;;;;;;;4.67;4.27;;;15.50;85.90;;;-142.21;100.00;112049.66;5019451;28;20930;-72
2022/10/03 04:41:36;;;;;;;5.83;4.67;;;15.50;85.80;;;-142.21;100.00;112049.66;5031717;28;20429;-71
2022/10/03 04:44:19;;;;;;;5.47;4.90;;;15.50;85.90;;;-142.21;100.00;112049.66;5087587;28;20437;-71
2022/10/03 04:46:56;;;;;;;7.80;4.60;;;15.50;85.70;;;-142.21;100.00;112049.66;5138739;28;20430;-71
2022/10/03 04:49:39;;;;;;;5.73;4.83;;;15.50;85.70;;;-142.21;100.00;112049.66;5062064;28;20441;-71
2022/10/03 04:52:21;;;;;;;7.50;4.83;;;15.50;85.60;;;-142.21;100.00;112049.66;5115224;28;20429;-71
2022/10/03 04:55:05;;;;;;;5.77;4.40;;;15.50;85.60;;;-142.21;100.00;112049.66;5114894;28;20461;-71
2022/10/03 04:57:47;;;;;;;8.17;4.90;;;15.50;85.60;;;-142.21;100.00;112049.66;5114274;28;20503;-71
2022/10/03 05:00:24;;;;;;;5.40;4.63;;;15.50;86.20;;;-142.21;100.00;112049.66;5114652;28;20451;-72
2022/10/03 05:03:01;;;;;;;8.47;5.33;;;15.50;85.40;;;-142.21;100.00;112049.66;5114608;28;20486;-71
2022/10/03 05:05:54;;;;;;;8.13;5.17;;;15.50;85.30;;;-142.21;100.00;112049.66;5114024;28;20421;-71
2022/10/03 05:08:42;;;;;;;6.80;4.70;;;15.50;85.00;;;-142.21;100.00;112049.66;5114719;28;20432;-72
2022/10/03 05:11:32;;;;;;;5.23;4.40;;;15.40;84.90;;;-142.21;100.00;112049.66;5114376;28;20517;-72
2022/10/03 05:14:13;;;;;;;5.40;4.60;;;15.40;84.90;;;-142.21;100.00;112049.66;5114203;28;20429;-72
2022/10/03 05:16:52;;;;;;;6.17;4.57;;;15.40;84.90;;;-142.21;100.00;112049.66;5078850;28;20442;-71
2022/10/03 05:19:48;;;;;;;6.00;5.07;;;15.30;84.70;;;-142.21;100.00;112049.66;5114082;28;20441;-71
2022/10/03 05:22:32;;;;;;;5.83;4.63;;;15.30;84.40;;;-142.21;100.00;112049.66;5114385;28;20798;-71
2022/10/03 05:25:18;;;;;;;5.47;4.73;;;15.20;84.50;;;-142.21;100.00;112049.66;5114199;28;20426;-71
2022/10/03 05:27:58;;;;;;;4.73;4.27;;;15.20;84.20;;;-142.21;100.00;112049.66;5113804;28;20782;-71
2022/10/03 05:30:42;;;;;;;5.67;4.73;;;15.20;84.40;;;-142.21;100.00;112049.66;5112886;28;20508;-71
2022/10/03 05:33:24;;;;;;;6.27;4.80;;;15.20;84.20;;;-142.21;100.00;112049.66;5113913;28;20418;-72
2022/10/03 05:36:29;;;;;;;6.97;5.13;;;15.10;84.00;;;-142.21;100.00;112049.66;5114022;28;20465;-71
2022/10/03 05:39:30;;;;;;;4.87;4.37;;;15.10;83.90;;;-142.21;100.00;112049.66;5114065;28;20485;-71
2022/10/03 05:42:35;;;;;;;5.77;4.80;;;15.10;83.90;;;-142.21;100.00;112049.66;5113858;28;20869;-72
2022/10/03 05:45:23;;;;;;;5.70;4.43;;;15.10;84.10;;;-142.21;100.00;112049.66;5113637;28;20437;-72
2022/10/03 05:47:55;;;;;;;9.37;5.30;;;15.10;84.30;;;-142.21;100.00;112049.66;5113907;28;20454;-72
2022/10/03 05:50:49;;;;;;;8.53;5.20;;;15.00;84.40;;;-142.21;100.00;112049.66;5113671;28;20470;-71
2022/10/03 05:54:00;;;;;;;5.77;4.20;;;14.90;84.50;;;-142.21;100.00;112049.66;5113805;28;20525;-72
2022/10/03 05:57:01;;;;;;;6.53;3.60;;;14.90;84.70;;;-142.21;100.00;112049.66;5051164;28;20850;-72
2022/10/03 06:00:06;;;;;;;4.17;3.20;;;14.80;84.60;;;-142.21;100.00;112049.66;5112841;28;20451;-72
2022/10/03 06:03:33;;;;;;;3.90;3.23;;;14.80;84.50;;;-142.21;100.00;112049.66;5110375;28;20540;-72
2022/10/03 06:06:18;;;;;;;3.13;2.83;;;14.80;84.70;;;-142.21;100.00;112049.66;5113238;28;20418;-71
2022/10/03 06:09:04;;;;;;;3.33;2.60;;;14.80;84.40;;;-142.21;100.00;112049.66;5095567;28;20785;-71
2022/10/03 06:12:03;;;;;;;3.47;2.80;;;14.80;84.30;;;-142.21;100.00;112049.66;5112450;28;20425;-71
2022/10/03 06:14:53;;;;;;;5.53;3.70;;;14.80;84.30;;;-142.21;100.00;112049.66;5111839;28;20501;-70
2022/10/03 06:17:45;;;;;;;3.97;3.57;;;14.80;84.30;;;-142.21;100.00;112049.66;5111507;28;20444;-71
2022/10/03 06:20:53;;;;;;;4.17;3.70;;;14.80;84.30;;;-142.21;100.00;112049.66;5113148;28;20418;-71
2022/10/03 06:24:20;;;;;;;5.53;4.37;;;14.90;85.20;;;-142.21;100.00;112049.66;5113069;28;20444;-72
2022/10/03 06:27:47;;;;;;;5.33;4.73;;;14.90;84.40;;;-142.21;100.00;112049.66;5111857;28;20446;-71
2022/10/03 06:30:32;;;;;;;5.67;4.60;;;14.90;84.40;;;-142.21;100.00;112049.66;5112405;28;20485;-70
2022/10/03 06:34:19;;;;;;;4.83;4.33;;;14.90;84.40;;;-142.21;100.00;112049.66;5076913;28;20528;-71
2022/10/03 06:37:37;;;;;;;4.40;4.00;;;14.90;84.40;;;-142.21;100.00;112049.66;5112159;28;20472;-70
2022/10/03 06:40:46;;;;;;;7.03;4.03;;;14.90;84.40;;;-142.21;100.00;112049.66;5112888;28;20429;-71
2022/10/03 06:43:48;;;;;;;4.17;3.73;;;14.90;84.40;;;-142.21;100.00;112049.66;5112450;28;20453;-71
2022/10/03 06:47:11;;;;;;;4.10;3.70;;;14.90;84.30;;;-142.21;100.00;112049.66;5062190;28;20539;-72
2022/10/03 06:50:21;;;;;;;5.10;4.60;;;15.00;84.20;;;-142.21;100.00;112049.66;5111800;28;20528;-72
2022/10/03 06:53:35;;;;;;;5.10;4.60;;;15.00;84.20;;;-142.21;100.00;112049.66;5085814;28;20536;-72
2022/10/03 06:57:05;;;;;;;5.17;4.67;;;15.00;84.30;;;-142.21;100.00;112049.66;5112552;28;20488;-72
2022/10/03 07:00:11;;;;;;;8.03;6.10;;;15.10;84.60;;;-142.21;100.00;112049.66;5111293;28;20464;-72
2022/10/03 07:03:30;;;;;;;8.53;7.20;;;15.10;84.80;;;-142.21;100.00;112049.66;5111732;28;20441;-71
2022/10/03 07:06:28;;;;;;;8.60;7.30;;;15.20;85.30;;;-142.21;100.00;112049.66;5112047;28;20886;-71
2022/10/03 07:09:48;;;;;;;7.77;6.10;;;15.20;85.40;;;-142.21;100.00;112049.66;5112141;28;20923;-69
2022/10/03 07:13:00;;;;;;;9.13;6.00;;;15.20;85.80;;;-142.21;100.00;112049.66;5111982;28;20446;-71
2022/10/03 07:16:04;;;;;;;7.97;6.37;;;15.30;85.10;;;-142.21;100.00;112049.66;5112107;28;20534;-71
2022/10/03 07:19:22;;;;;;;8.80;7.10;;;15.40;85.50;;;-142.21;100.00;112049.66;5111356;28;20441;-71
2022/10/03 07:22:50;;;;;;;9.87;7.50;;;15.40;85.30;;;-142.21;100.00;112049.66;5111718;28;20487;-71
2022/10/03 07:25:58;;;;;;;7.40;6.47;;;15.50;85.30;;;-142.21;100.00;112049.66;5111756;28;20453;-71
2022/10/03 07:29:12;;;;;;;7.37;6.20;;;15.50;85.40;;;-142.21;100.00;112049.66;5111836;28;20520;-72
2022/10/03 07:31:59;;;;;;;7.30;5.63;;;15.60;85.50;;;-142.21;100.00;112049.66;5111147;28;20480;-70
2022/10/03 07:35:20;;;;;;;6.00;4.90;;;15.70;85.60;;;-142.21;100.00;112049.66;5111763;28;20517;-72
2022/10/03 07:41:59;;;;;;;6.70;5.37;;;15.80;85.40;;;-142.21;100.00;112049.66;5046841;28;21038;-71
2022/10/03 07:45:06;;;;;;;5.70;5.20;;;15.90;85.50;;;-142.21;100.00;112049.66;5091793;28;20503;-70
2022/10/03 07:48:44;;;;;;;9.57;5.80;;;15.90;85.20;;;-142.21;100.00;112049.66;5093975;28;20536;-71
2022/10/03 07:51:23;;;;;;;6.80;5.93;;;16.00;85.60;;;-142.21;100.00;112049.66;5023664;28;20457;-70
2022/10/03 07:54:38;;;;;;;6.93;5.33;;;16.00;85.70;;;-142.21;100.00;112049.66;5032641;28;20432;-71
2022/10/03 07:57:36;;;;;;;6.67;5.50;;;16.10;86.20;;;-142.21;100.00;112049.66;5095354;28;20505;-71
2022/10/03 08:00:24;;;;;;;7.10;5.30;;;16.10;86.00;;;-142.21;100.00;112049.66;5115518;28;20457;-71
2022/10/03 08:03:51;;;;;;;7.07;5.20;;;16.20;85.70;;;-142.21;100.00;112049.66;5115466;28;20834;-72
2022/10/03 08:06:30;;;;;;;6.27;5.10;;;16.20;85.70;;;-142.21;100.00;112049.66;5115898;28;20505;-73
2022/10/03 08:09:53;;;;;;;5.93;5.37;;;16.30;85.50;;;-142.21;100.00;112049.66;5115280;28;20427;-71
2022/10/03 08:13:16;;;;;;;10.03;6.80;;;16.30;85.50;;;-142.21;100.00;112049.66;5110588;28;20969;-71
2022/10/03 08:16:16;;;;;;;8.63;6.00;;;16.40;85.50;;;-142.21;100.00;112049.66;5113834;28;20481;-71
2022/10/03 08:19:15;;;;;;;13.57;10.30;;;16.50;86.00;;;-142.21;100.00;112049.66;5114769;28;20482;-72
2022/10/03 08:22:04;;;;;;;15.50;10.87;;;16.50;85.00;;;-142.21;100.00;112049.66;5115085;28;20429;-70
2022/10/03 08:24:58;;;;;;;16.47;11.27;;;16.60;84.60;;;-142.21;100.00;112049.66;5115160;28;20430;-71
2022/10/03 08:27:57;;;;;;;20.30;12.30;;;16.70;84.70;;;-142.21;100.00;112049.66;5115248;28;20450;-72
2022/10/03 08:30:43;;;;;;;21.93;12.23;;;16.70;84.20;;;-142.21;100.00;112049.66;5114872;28;20935;-72
2022/10/03 08:33:47;;;;;;;15.57;12.27;;;16.80;84.30;;;-142.21;100.00;112049.66;5115563;28;20441;-70
2022/10/03 08:36:55;;;;;;;16.80;12.50;;;16.90;84.50;;;-142.21;100.00;112049.66;5114888;28;20548;-72
2022/10/03 08:39:57;;;;;;;16.93;12.13;;;17.10;84.30;;;-142.21;100.00;112049.66;5111416;28;20858;-71
2022/10/03 08:43:06;;;;;;;16.00;11.10;;;17.30;83.50;;;-142.21;100.00;112049.66;5115256;28;20524;-71
2022/10/03 08:46:18;;;;;;;14.30;10.67;;;17.60;83.10;;;-142.21;100.00;112049.66;5114848;28;20528;-71
2022/10/03 08:49:24;;;;;;;16.73;11.77;;;17.70;80.70;;;-142.21;100.00;112049.66;5114599;28;20426;-71
2022/10/03 08:52:20;;;;;;;16.33;10.87;;;17.90;80.80;;;-142.21;100.00;112049.66;5112954;28;20510;-71
2022/10/03 08:55:22;;;;;;;19.17;11.57;;;18.20;81.20;;;-142.21;100.00;112049.66;5113953;28;20521;-71
2022/10/03 08:58:40;;;;;;;14.87;10.33;;;18.30;78.40;;;-142.21;100.00;112049.66;5113655;28;20943;-71
2022/10/03 09:01:34;;;;;;;13.20;11.10;;;18.30;77.80;;;-142.21;100.00;112049.66;5115133;28;20456;-71
2022/10/03 09:04:54;;;;;;;14.27;9.87;;;18.30;77.90;;;-142.21;100.00;112049.66;5114501;28;20760;-71
2022/10/03 09:08:21;;;;;;;13.43;10.23;;;18.30;78.00;;;-142.21;100.00;112049.66;5114491;28;20436;-71
2022/10/03 09:11:29;;;;;;;11.13;9.97;;;18.20;77.50;;;-142.21;100.00;112049.66;5108904;28;20460;-71
2022/10/03 09:14:40;;;;;;;15.27;9.83;;;18.20;77.90;;;-142.21;100.00;112049.66;5113582;28;20541;-71
2022/10/03 09:17:45;;;;;;;13.47;9.60;;;18.20;76.70;;;-142.21;100.00;112049.66;5110496;28;20473;-71
2022/10/03 09:21:05;;;;;;;14.07;9.77;;;18.20;77.20;;;-142.21;100.00;112049.66;5114164;28;20937;-71
2022/10/03 09:24:29;;;;;;;13.63;9.30;;;18.10;77.50;;;-142.21;100.00;112049.66;5114247;28;20871;-70
2022/10/03 09:27:36;;;;;;;11.80;8.90;;;18.10;77.30;;;-142.21;100.00;112049.66;5060755;28;20452;-72
2022/10/03 09:30:40;;;;;;;12.00;8.77;;;18.10;77.20;;;-142.21;100.00;112049.66;5113726;28;20487;-71
2022/10/03 09:34:08;;;;;;;14.40;8.97;;;18.10;75.80;;;-142.21;100.00;112049.66;5114253;28;20460;-71
2022/10/03 09:37:22;;;;;;;11.23;8.20;;;18.10;76.60;;;-142.21;100.00;112049.66;5077488;28;20533;-70
2022/10/03 09:40:46;;;;;;;14.43;8.47;;;18.10;76.70;;;-142.21;100.00;112049.66;5109854;28;20961;-70
2022/10/03 09:43:51;;;;;;;11.53;7.80;;;18.10;74.60;;;-142.21;100.00;112049.66;5099806;28;20546;-70
2022/10/03 09:51:08;;;;;;;13.60;9.00;;;18.20;78.40;;;-142.21;100.00;112049.66;5113180;28;20560;-70
2022/10/03 09:54:33;;;;;;;10.07;7.83;;;18.30;77.20;;;-142.21;100.00;112049.66;4971608;28;20455;-71
2022/10/03 09:57:41;;;;;;;9.37;7.07;;;18.50;74.00;;;-142.21;100.00;112049.66;4974460;28;20486;-72
2022/10/03 10:00:54;;;;;;;10.50;8.17;;;18.80;75.70;;;-142.21;100.00;112049.66;5109636;28;20485;-70
2022/10/03 10:04:11;;;;;;;12.07;7.37;;;19.00;76.00;;;-142.21;100.00;112049.66;5095795;28;20444;-70
2022/10/03 10:07:35;;;;;;;11.10;6.40;;;19.20;74.70;;;-142.21;100.00;112049.66;5090104;28;20446;-72
2022/10/03 10:10:52;;;;;;;11.43;7.00;;;19.40;71.60;;;-142.21;98.35;112049.66;5109105;28;20438;-72
2022/10/03 10:14:20;;;;;;;9.83;7.20;;;19.60;70.60;;;-142.21;100.00;112049.66;5092808;28;20231;-70
2022/10/03 10:18:09;;;;;;;10.27;6.37;;;19.80;71.00;;;-142.21;100.00;112049.66;5107331;28;20226;-71
2022/10/03 10:21:37;;;;;;;10.23;6.00;;;20.00;71.90;;;-142.21;98.19;112049.66;5106378;28;20279;-71
2022/10/03 10:24:54;;;;;;;8.23;5.20;;;20.40;69.70;;;-142.21;98.40;112049.66;5112768;28;20293;-71
2022/10/03 10:28:28;;;;;;;8.10;5.07;;;20.70;70.10;;;-142.21;94.23;112049.66;5105146;28;20433;-71
2022/10/03 10:32:01;;;;;;;9.73;5.57;;;21.10;67.30;;;-142.21;90.98;112049.66;5054840;28;20327;-71
2022/10/03 10:35:25;;;;;;;8.20;5.67;;;21.50;65.40;;;-142.21;92.89;112049.66;5092790;28;20287;-71
2022/10/03 10:38:24;;;;;;;7.67;5.53;;;21.50;65.70;;;-142.21;92.23;112049.66;5108011;28;20196;-72
2022/10/03 10:42:00;;;;;;;5.43;4.27;;;21.50;65.90;;;-142.21;91.54;112049.66;5112243;28;20406;-71
2022/10/03 10:45:23;;;;;;;7.80;4.97;;;21.60;64.10;;;-142.21;89.22;112049.66;5010812;28;20391;-72
2022/10/03 10:48:57;;;;;;;6.57;4.60;;;21.70;63.60;;;-142.21;88.38;112049.66;5107854;28;20192;-72
2022/10/03 10:52:07;;;;;;;6.23;4.40;;;21.70;62.60;;;-142.21;89.00;112049.66;5101098;28;20196;-71
2022/10/03 10:55:35;;;;;;;8.17;5.00;;;21.60;62.60;;;-142.21;90.38;112049.66;5112411;28;20223;-71
2022/10/03 10:59:13;;;;;;;10.87;4.33;;;21.40;64.20;;;-142.21;90.77;112049.66;5009248;28;20197;-72
2022/10/03 11:02:39;;;;;;;8.97;4.70;;;21.30;62.70;;;-142.21;89.93;112049.66;5080365;28;20203;-71
2022/10/03 11:06:07;;;;;;;6.20;3.90;;;21.40;62.70;;;-142.21;91.01;112049.66;5096992;28;20199;-72
2022/10/03 11:09:31;;;;;;;8.87;3.30;;;21.70;63.90;;;-142.21;87.33;112049.66;5091585;28;20227;-71
2022/10/03 11:12:50;;;;;;;6.10;3.33;;;21.80;61.40;;;-142.21;86.26;112049.66;5022286;28;20283;-72
2022/10/03 11:16:20;;;;;;;7.20;3.50;;;22.10;61.60;;;-142.21;80.54;112049.66;5091977;28;20197;-73
2022/10/03 11:19:45;;;;;;;6.03;2.80;;;22.40;58.90;;;-142.21;77.18;112049.66;5105856;28;20283;-71
2022/10/03 11:23:20;;;;;;;6.13;3.23;;;22.30;57.10;;;-142.21;79.78;112049.66;5111727;28;20224;-70
2022/10/03 11:26:49;;;;;;;5.03;3.07;;;22.30;57.70;;;-142.21;78.70;112049.66;5046656;28;20195;-71
2022/10/03 11:30:18;;;;;;;5.97;2.80;;;22.40;58.40;;;-142.21;72.70;112049.66;5112157;28;20226;-72
2022/10/03 11:33:41;;;;;;;7.67;4.07;;;22.60;56.30;;;-142.21;79.22;112049.66;5110669;28;20483;-71
2022/10/03 11:36:57;;;;;;;4.23;2.77;;;23.00;58.10;;;-142.21;73.53;112049.66;5111646;28;20703;-70
2022/10/03 11:39:40;;;;;;;7.27;3.00;;;23.30;57.20;;;-142.21;65.81;112049.66;5111572;28;20290;-72
2022/10/03 11:42:27;;;;;;;4.10;3.00;;;23.60;55.90;;;-142.21;73.44;112049.66;5111828;28;20193;-71
2022/10/03 11:45:02;;;;;;;5.43;3.03;;;23.80;56.40;;;-142.21;70.50;112049.66;5111198;28;20195;-71
2022/10/03 11:48:15;;;;;;;8.30;2.90;;;24.00;56.30;;;-142.21;66.00;112049.66;5055320;28;20203;-72
2022/10/03 11:50:51;;;;;;;4.97;3.10;;;24.30;53.90;;;-142.21;63.81;112049.66;5094782;28;20273;-71
2022/10/03 11:53:33;;;;;;;6.20;2.97;;;24.60;54.60;;;-142.21;62.22;112049.66;5111866;28;20286;-71
2022/10/03 11:56:20;;;;;;;4.80;3.30;;;24.70;54.00;;;-142.21;59.19;112049.66;5111222;28;20251;-71
2022/10/03 11:59:27;;;;;;;7.27;2.80;;;24.50;52.70;;;-142.21;61.34;112049.66;5111207;28;20191;-71
2022/10/03 12:02:13;;;;;;;4.43;2.47;;;24.30;52.30;;;-142.21;60.79;112049.66;5110961;28;20282;-72
2022/10/03 12:04:58;;;;;;;6.03;2.40;;;24.10;52.50;;;-142.21;63.36;112049.66;5094275;28;20278;-72
2022/10/03 12:10:50;;;;;;;3.70;3.23;;;23.80;52.90;;;-142.21;69.46;112049.66;5108568;28;20271;-73
2022/10/03 12:13:28;;;;;;;5.40;2.77;;;23.50;54.10;;;-142.21;71.10;112049.66;5102577;28;20586;-71
2022/10/03 12:15:58;;;;;;;4.00;2.73;;;23.60;55.10;;;-142.21;68.27;112049.66;5110543;28;20253;-73
2022/10/03 12:18:50;;;;;;;4.57;3.20;;;23.60;54.70;;;-142.21;65.75;112049.66;5111145;28;20260;-71
2022/10/03 12:21:27;;;;;;;3.83;2.70;;;23.60;53.90;;;-142.21;67.52;112049.66;5111234;28;20234;-71
2022/10/03 12:24:21;;;;;;;5.67;3.03;;;23.50;54.60;;;-142.21;68.28;112049.66;5111195;28;20615;-70
2022/10/03 12:26:58;;;;;;;4.70;2.87;;;23.60;54.60;;;-142.21;65.53;112049.66;5110013;28;20214;-72
2022/10/03 12:29:32;;;;;;;6.13;3.47;;;23.80;54.80;;;-142.21;65.09;112049.66;5111192;28;20312;-72